createdAt,value
2023-02-26T00:01:26.206Z,68.50
2023-02-26T00:03:55.902Z,68.81
2023-02-26T00:06:24.297Z,68.48
2023-02-26T00:08:51.673Z,68.93
2023-02-26T00:11:19.149Z,69.25
2023-02-26T00:13:46.462Z,69.65
2023-02-26T00:16:43.904Z,69.29
2023-02-26T00:19:12.446Z,69.23
2023-02-26T00:21:39.630Z,68.97
2023-02-26T00:24:06.895Z,69.35
2023-02-26T00:26:35.531Z,70.29
2023-02-26T00:29:04.085Z,69.28
2023-02-26T00:31:31.522Z,70.02
2023-02-26T00:33:59.039Z,70.00
2023-02-26T00:36:45.196Z,69.17
2023-02-26T00:39:33.936Z,69.78
2023-02-26T00:42:01.124Z,70.89
2023-02-26T00:44:28.332Z,70.18
2023-02-26T00:47:13.966Z,70.62
2023-02-26T00:50:09.827Z,71.01
2023-02-26T00:52:44.274Z,70.02
2023-02-26T00:55:11.353Z,70.65
2023-02-26T00:57:38.360Z,71.63
2023-02-26T01:00:08.143Z,71.23
2023-02-26T01:02:36.964Z,71.70
2023-02-26T01:05:04.779Z,71.80
2023-02-26T01:07:40.429Z,71.32
2023-02-26T01:10:08.381Z,71.58
2023-02-26T01:12:35.844Z,72.07
2023-02-26T01:15:04.556Z,71.71
2023-02-26T01:17:41.173Z,71.73
2023-02-26T01:20:21.734Z,72.11
2023-02-26T01:22:51.624Z,71.45
2023-02-26T01:25:24.922Z,71.39
2023-02-26T01:27:52.808Z,72.38
2023-02-26T01:30:20.686Z,72.02
2023-02-26T01:33:22.018Z,72.23
2023-02-26T01:35:53.839Z,71.46
2023-02-26T01:38:28.503Z,71.50
2023-02-26T01:41:04.889Z,72.03
2023-02-26T01:43:39.627Z,72.40
2023-02-26T01:46:18.252Z,72.61
2023-02-26T01:48:52.338Z,72.83
2023-02-26T01:51:40.091Z,72.16
2023-02-26T01:54:07.308Z,71.92
2023-02-26T01:56:34.665Z,71.80
2023-02-26T01:59:06.047Z,72.25
2023-02-26T02:01:34.084Z,71.77
2023-02-26T02:04:01.148Z,71.83
2023-02-26T02:06:29.896Z,71.42
2023-02-26T02:08:57.014Z,70.83
2023-02-26T02:11:24.542Z,71.27
2023-02-26T02:14:41.918Z,71.62
2023-02-26T02:17:33.146Z,71.56
2023-02-26T02:20:34.092Z,71.25
2023-02-26T02:23:11.983Z,70.26
2023-02-26T02:25:48.088Z,70.13
2023-02-26T02:28:24.125Z,70.14
2023-02-26T02:31:13.943Z,70.02
2023-02-26T02:34:17.338Z,70.02
2023-02-26T02:36:53.371Z,69.58
2023-02-26T02:39:27.915Z,69.50
2023-02-26T02:42:27.559Z,69.96
2023-02-26T02:45:00.973Z,69.97
2023-02-26T02:47:31.107Z,70.21
2023-02-26T02:50:13.629Z,69.92
2023-02-26T02:52:50.346Z,68.97
2023-02-26T02:55:38.642Z,69.58
2023-02-26T02:58:11.713Z,70.24
2023-02-26T03:00:42.761Z,69.56
2023-02-26T03:03:25.066Z,69.93
2023-02-26T03:05:52.387Z,69.77
2023-02-26T03:08:25.447Z,69.23
2023-02-26T03:10:52.609Z,69.83
2023-02-26T03:13:23.649Z,69.13
2023-02-26T03:16:21.400Z,69.13
2023-02-26T03:19:00.737Z,69.52
2023-02-26T03:21:49.500Z,68.99
2023-02-26T03:24:55.550Z,69.27
2023-02-26T03:27:49.554Z,69.63
2023-02-26T03:30:40.600Z,69.76
2023-02-26T03:33:16.726Z,69.88
2023-02-26T03:35:55.302Z,69.00
2023-02-26T03:38:51.829Z,69.93
2023-02-26T03:41:36.137Z,69.84
2023-02-26T03:44:09.936Z,69.86
2023-02-26T03:46:44.883Z,69.34
2023-02-26T03:49:27.178Z,69.75
2023-02-26T03:51:55.023Z,69.51
2023-02-26T03:55:04.094Z,69.23
2023-02-26T03:57:50.138Z,69.56
2023-02-26T04:00:38.187Z,69.40
2023-02-26T04:03:14.638Z,69.56
2023-02-26T04:05:45.102Z,68.59
2023-02-26T04:08:12.193Z,68.12
2023-02-26T04:10:55.869Z,68.76
2023-02-26T04:13:23.762Z,69.30
2023-02-26T04:15:51.274Z,68.88
2023-02-26T04:18:18.347Z,69.28
2023-02-26T04:20:45.245Z,68.39
2023-02-26T04:23:12.283Z,70.27
2023-02-26T04:25:39.985Z,69.69
2023-02-26T04:28:07.227Z,70.13
2023-02-26T04:30:34.346Z,70.02
2023-02-26T04:33:03.045Z,69.58
2023-02-26T04:35:30.239Z,70.53
2023-02-26T04:37:57.772Z,69.96
2023-02-26T04:40:25.172Z,69.30
2023-02-26T04:42:52.307Z,69.31
2023-02-26T04:45:23.914Z,69.52
2023-02-26T04:47:51.089Z,69.87
2023-02-26T04:50:18.153Z,70.06
2023-02-26T04:52:47.940Z,68.49
2023-02-26T04:55:14.954Z,68.90
2023-02-26T04:57:41.903Z,68.46
2023-02-26T05:00:09.511Z,67.99
2023-02-26T05:02:38.851Z,67.94
2023-02-26T05:05:05.924Z,67.51
2023-02-26T05:07:33.325Z,68.17
2023-02-26T05:10:00.228Z,68.78
2023-02-26T05:12:27.285Z,67.97
2023-02-26T05:14:54.233Z,67.97
2023-02-26T05:17:21.155Z,67.87
2023-02-26T05:19:48.176Z,67.90
2023-02-26T05:22:15.940Z,68.32
2023-02-26T05:24:43.927Z,68.67
2023-02-26T05:27:11.014Z,67.71
2023-02-26T05:29:45.028Z,68.28
2023-02-26T05:32:14.244Z,68.74
2023-02-26T05:34:41.216Z,68.17
2023-02-26T05:37:08.089Z,68.88
2023-02-26T05:39:35.076Z,68.93
2023-02-26T05:42:02.003Z,68.84
2023-02-26T05:44:29.139Z,69.40
2023-02-26T05:46:56.165Z,68.57
2023-02-26T05:49:23.099Z,68.83
2023-02-26T05:51:50.059Z,68.23
2023-02-26T05:54:17.047Z,68.37
2023-02-26T05:56:44.121Z,69.42
2023-02-26T05:59:11.112Z,69.75
2023-02-26T06:01:38.245Z,69.82
2023-02-26T06:04:06.581Z,69.40
2023-02-26T06:06:33.927Z,68.99
2023-02-26T06:09:02.420Z,69.18
2023-02-26T06:11:34.065Z,69.81
2023-02-26T06:14:01.593Z,69.05
2023-02-26T06:16:28.886Z,70.07
2023-02-26T06:18:55.986Z,70.18
2023-02-26T06:21:22.939Z,69.65
2023-02-26T06:23:49.993Z,69.46
2023-02-26T06:26:16.917Z,69.49
2023-02-26T06:28:43.830Z,69.93
2023-02-26T06:31:10.753Z,69.68
2023-02-26T06:33:37.679Z,69.90
2023-02-26T06:36:04.940Z,68.85
2023-02-26T06:38:31.804Z,68.60
2023-02-26T06:40:58.877Z,70.17
2023-02-26T06:43:26.164Z,69.19
2023-02-26T06:45:53.143Z,68.93
2023-02-26T06:48:20.278Z,69.00
2023-02-26T06:50:47.217Z,68.80
2023-02-26T06:53:14.175Z,68.84
2023-02-26T06:55:46.095Z,67.96
2023-02-26T06:58:14.104Z,67.86
2023-02-26T07:00:41.636Z,67.56
2023-02-26T07:03:12.954Z,67.78
2023-02-26T07:05:39.892Z,67.84
2023-02-26T07:08:06.865Z,67.09
2023-02-26T07:10:35.486Z,67.11
2023-02-26T07:13:03.193Z,67.09
2023-02-26T07:15:30.553Z,67.25
2023-02-26T07:17:57.479Z,67.25
2023-02-26T07:20:24.429Z,66.88
2023-02-26T07:22:51.353Z,66.38
2023-02-26T07:25:18.625Z,66.44
2023-02-26T07:27:45.521Z,66.71
2023-02-26T07:30:13.023Z,66.99
2023-02-26T07:32:40.107Z,67.04
2023-02-26T07:35:07.315Z,67.00
2023-02-26T07:37:34.225Z,65.94
2023-02-26T07:40:01.204Z,66.25
2023-02-26T07:42:28.122Z,66.11
2023-02-26T07:44:55.078Z,66.63
2023-02-26T07:47:22.059Z,66.27
2023-02-26T07:49:49.099Z,65.98
2023-02-26T07:52:16.708Z,66.02
2023-02-26T07:54:43.899Z,65.59
2023-02-26T07:57:10.992Z,64.94
2023-02-26T07:59:38.004Z,65.27
2023-02-26T08:02:07.071Z,65.05
2023-02-26T08:04:34.233Z,64.95
2023-02-26T08:07:01.793Z,64.54
2023-02-26T08:09:29.362Z,63.77
2023-02-26T08:11:56.560Z,63.37
2023-02-26T08:14:23.631Z,63.14
2023-02-26T08:16:50.616Z,62.71
2023-02-26T08:19:18.438Z,61.96
2023-02-26T08:21:45.342Z,61.49
2023-02-26T08:24:12.815Z,61.67
2023-02-26T08:26:39.833Z,62.01
2023-02-26T08:29:07.527Z,61.72
2023-02-26T08:31:35.611Z,60.93
2023-02-26T08:34:02.694Z,60.54
2023-02-26T08:36:30.472Z,60.66
2023-02-26T08:38:57.613Z,60.21
2023-02-26T08:41:27.686Z,59.04
2023-02-26T08:43:54.831Z,59.26
2023-02-26T08:46:22.036Z,59.30
2023-02-26T08:48:49.042Z,58.57
2023-02-26T08:51:16.009Z,58.50
2023-02-26T08:53:45.470Z,57.79
2023-02-26T08:56:12.433Z,57.30
2023-02-26T08:58:39.914Z,56.70
2023-02-26T09:01:06.911Z,56.52
2023-02-26T09:03:33.857Z,55.93
2023-02-26T09:06:00.879Z,55.77
2023-02-26T09:08:27.828Z,55.59
2023-02-26T09:10:54.769Z,55.65
2023-02-26T09:13:21.700Z,55.32
2023-02-26T09:15:49.830Z,55.26
2023-02-26T09:18:16.853Z,55.67
2023-02-26T09:20:45.136Z,54.91
2023-02-26T09:23:12.993Z,54.46
2023-02-26T09:25:40.104Z,54.48
2023-02-26T09:28:07.099Z,53.56
2023-02-26T09:30:34.202Z,53.61
2023-02-26T09:33:01.154Z,53.08
2023-02-26T09:35:28.355Z,52.81
2023-02-26T09:37:55.276Z,53.62
2023-02-26T09:40:25.910Z,53.96
2023-02-26T09:43:17.214Z,53.79
2023-02-26T10:18:01.317Z,55.65
2023-02-26T10:20:39.882Z,55.54
2023-02-26T10:23:18.112Z,54.71
2023-02-26T10:25:50.023Z,53.89
2023-02-26T10:28:35.256Z,53.40
2023-02-26T10:31:17.313Z,52.80
2023-02-26T10:33:50.892Z,53.51
2023-02-26T10:36:25.182Z,53.43
2023-02-26T10:38:59.459Z,53.02
2023-02-26T10:41:30.602Z,53.46
2023-02-26T10:44:24.408Z,53.70
2023-02-26T10:47:28.239Z,52.77
2023-02-26T10:50:13.611Z,52.86
2023-02-26T10:52:43.728Z,52.55
2023-02-26T10:55:16.321Z,51.98
2023-02-26T10:57:55.102Z,52.54
2023-02-26T11:00:22.928Z,52.18
2023-02-26T11:02:53.539Z,52.22
2023-02-26T11:05:28.156Z,52.98
2023-02-26T11:08:00.370Z,52.38
2023-02-26T11:10:40.633Z,52.44
2023-02-26T11:13:07.798Z,52.70
2023-02-26T11:15:34.777Z,53.48
2023-02-26T11:18:02.404Z,53.32
2023-02-26T11:20:37.660Z,53.85
2023-02-26T11:23:11.447Z,54.15
2023-02-26T11:25:39.480Z,54.03
2023-02-26T11:28:19.997Z,54.64
2023-02-26T11:30:49.301Z,54.16
2023-02-26T11:33:24.547Z,55.01
2023-02-26T11:35:52.598Z,54.65
2023-02-26T11:38:25.758Z,54.79
2023-02-26T11:40:58.356Z,54.55
2023-02-26T11:43:33.895Z,54.32
2023-02-26T11:46:02.995Z,53.18
2023-02-26T11:48:39.489Z,52.94
2023-02-26T11:51:07.570Z,53.08
2023-02-26T11:53:43.107Z,52.81
2023-02-26T11:56:16.033Z,53.26
2023-02-26T11:58:46.066Z,52.20
2023-02-26T12:01:16.826Z,52.55
2023-02-26T12:03:47.958Z,52.45
2023-02-26T12:06:24.926Z,53.16
2023-02-26T12:08:53.554Z,53.32
2023-02-26T12:11:50.453Z,53.63
2023-02-26T12:14:39.391Z,52.84
2023-02-26T12:17:16.305Z,52.51
2023-02-26T12:20:15.294Z,52.98
2023-02-26T12:23:01.090Z,53.18
2023-02-26T12:25:49.575Z,52.72
2023-02-26T12:28:44.395Z,52.25
2023-02-26T12:31:36.698Z,52.10
2023-02-26T12:34:15.581Z,51.96
2023-02-26T12:36:49.866Z,52.15
2023-02-26T12:39:40.721Z,52.47
2023-02-26T12:42:47.487Z,52.72
2023-02-26T12:45:36.133Z,53.08
2023-02-26T12:48:14.995Z,51.95
2023-02-26T12:51:09.740Z,52.44
2023-02-26T12:53:39.287Z,53.06
2023-02-26T12:56:24.360Z,52.63
2023-02-26T12:59:18.238Z,52.77
2023-02-26T13:02:13.623Z,53.42
2023-02-26T13:04:52.425Z,53.71
2023-02-26T13:07:50.062Z,54.15
2023-02-26T13:10:35.130Z,54.07
2023-02-26T13:13:28.521Z,54.37
2023-02-26T13:16:04.388Z,54.73
2023-02-26T13:18:48.853Z,54.90
2023-02-26T13:21:33.545Z,54.96
2023-02-26T13:24:11.622Z,55.24
2023-02-26T13:26:39.099Z,54.47
2023-02-26T13:29:17.587Z,54.74
2023-02-26T13:31:59.219Z,54.27
2023-02-26T13:34:35.389Z,54.61
2023-02-26T13:37:03.903Z,54.13
2023-02-26T13:39:41.125Z,54.70
2023-02-26T13:42:35.692Z,54.05
2023-02-26T13:45:36.930Z,54.64
2023-02-26T13:48:41.694Z,53.45
2023-02-26T13:51:29.733Z,53.94
2023-02-26T13:54:04.614Z,54.74
2023-02-26T13:56:31.536Z,54.33
2023-02-26T13:59:15.139Z,54.29
2023-02-26T14:01:47.553Z,54.55
2023-02-26T14:04:20.277Z,54.76
2023-02-26T14:06:59.923Z,54.63
2023-02-26T14:09:36.612Z,54.73
2023-02-26T14:12:18.343Z,54.48
2023-02-26T14:15:13.895Z,54.60
2023-02-26T14:17:49.244Z,54.89
2023-02-26T14:20:26.740Z,54.12
2023-02-26T14:23:06.463Z,54.31
2023-02-26T14:25:37.816Z,54.84
2023-02-26T14:28:33.794Z,54.91
2023-02-26T14:31:04.411Z,54.79
2023-02-26T14:33:37.975Z,55.23
2023-02-26T14:36:08.423Z,54.64
2023-02-26T14:38:39.570Z,55.17
2023-02-26T14:41:18.950Z,55.21
2023-02-26T14:44:21.044Z,55.20
2023-02-26T14:46:49.815Z,55.07
2023-02-26T14:49:27.490Z,55.34
2023-02-26T14:52:03.925Z,54.89
2023-02-26T14:54:42.843Z,55.03
2023-02-26T14:57:28.243Z,55.76
2023-02-26T15:00:19.129Z,55.55
2023-02-26T15:03:13.658Z,55.53
2023-02-26T15:06:04.410Z,55.56
2023-02-26T15:08:49.420Z,55.76
2023-02-26T15:11:56.790Z,55.93
2023-02-26T15:14:43.713Z,55.78
2023-02-26T15:17:34.295Z,55.46
2023-02-26T15:20:10.055Z,55.44
2023-02-26T15:22:36.901Z,55.39
2023-02-26T15:25:11.965Z,55.01
2023-02-26T15:27:39.212Z,55.46
2023-02-26T15:30:06.962Z,55.47
2023-02-26T15:32:38.138Z,55.95
2023-02-26T15:35:16.521Z,55.97
2023-02-26T15:37:43.650Z,56.25
2023-02-26T15:40:14.537Z,55.47
2023-02-26T15:42:45.377Z,55.74
2023-02-26T15:45:33.627Z,55.81
2023-02-26T15:48:25.272Z,55.99
2023-02-26T15:50:59.354Z,55.68
2023-02-26T15:53:35.856Z,55.67
2023-02-26T15:56:06.166Z,55.04
2023-02-26T15:58:40.960Z,55.59
2023-02-26T16:01:08.073Z,55.74
2023-02-26T16:03:37.527Z,55.75
2023-02-26T16:06:07.082Z,55.40
2023-02-26T16:08:34.247Z,55.69
2023-02-26T16:11:02.284Z,55.34
2023-02-26T16:13:33.048Z,55.75
2023-02-26T16:16:12.049Z,55.74
2023-02-26T16:18:41.438Z,55.61
2023-02-26T16:21:12.748Z,55.08
2023-02-26T16:23:45.362Z,55.07
2023-02-26T16:26:21.631Z,55.07
2023-02-26T16:28:54.112Z,55.45
2023-02-26T16:31:25.518Z,55.54
2023-02-26T16:33:59.978Z,55.41
2023-02-26T16:36:31.661Z,55.72
2023-02-26T16:39:27.815Z,55.64
2023-02-26T16:42:37.142Z,55.77
2023-02-26T16:45:30.239Z,55.82
2023-02-26T16:47:58.868Z,55.63
2023-02-26T16:50:29.255Z,55.78
2023-02-26T16:53:06.343Z,55.53
2023-02-26T16:55:36.880Z,55.63
2023-02-26T16:58:07.747Z,55.34
2023-02-26T17:00:37.589Z,55.60
2023-02-26T17:03:18.573Z,55.50
2023-02-26T17:06:02.293Z,55.92
2023-02-26T17:08:52.512Z,55.82
2023-02-26T17:11:28.444Z,55.46
2023-02-26T17:14:22.607Z,55.77
2023-02-26T17:16:51.036Z,55.17
2023-02-26T17:19:19.130Z,55.75
2023-02-26T17:22:00.485Z,55.64
2023-02-26T17:24:33.785Z,55.21
2023-02-26T17:27:02.989Z,55.46
2023-02-26T17:29:42.181Z,55.07
2023-02-26T17:32:20.614Z,54.42
2023-02-26T17:34:47.749Z,54.65
2023-02-26T17:37:15.632Z,54.43
2023-02-26T17:39:43.765Z,54.58
2023-02-26T17:42:21.893Z,54.50
2023-02-26T17:44:49.794Z,54.33
2023-02-26T17:47:19.405Z,53.75
2023-02-26T17:49:46.824Z,53.67
2023-02-26T17:52:14.431Z,54.16
2023-02-26T17:54:41.672Z,53.84
2023-02-26T17:57:16.759Z,53.82
2023-02-26T17:59:43.737Z,53.93
2023-02-26T18:02:21.460Z,53.64
2023-02-26T18:04:48.415Z,53.58
2023-02-26T18:07:16.952Z,53.78
2023-02-26T18:09:45.788Z,53.90
2023-02-26T18:12:18.223Z,53.97
2023-02-26T18:14:46.285Z,53.92
2023-02-26T18:17:15.124Z,53.47
2023-02-26T18:19:43.049Z,54.02
2023-02-26T18:22:14.497Z,54.09
2023-02-26T18:24:42.103Z,53.93
2023-02-26T18:27:14.798Z,54.09
2023-02-26T18:29:42.000Z,53.98
2023-02-26T18:32:17.327Z,54.29
2023-02-26T18:34:44.540Z,54.20
2023-02-26T18:37:17.208Z,54.47
2023-02-26T18:39:44.902Z,54.24
2023-02-26T18:42:23.398Z,54.88
2023-02-26T18:44:51.525Z,54.98
2023-02-26T18:47:19.632Z,54.97
2023-02-26T18:49:49.726Z,54.39
2023-02-26T18:52:17.551Z,55.01
2023-02-26T18:54:45.315Z,55.29
2023-02-26T18:57:12.347Z,55.38
2023-02-26T18:59:39.501Z,55.98
2023-02-26T19:02:08.068Z,56.11
2023-02-26T19:04:35.337Z,55.81
2023-02-26T19:07:02.447Z,56.05
2023-02-26T19:09:29.708Z,56.08
2023-02-26T19:11:57.505Z,56.27
2023-02-26T19:14:25.108Z,56.24
2023-02-26T19:16:52.140Z,56.79
2023-02-26T19:19:19.352Z,56.34
2023-02-26T19:21:46.759Z,56.07
2023-02-26T19:24:15.104Z,55.66
2023-02-26T19:26:43.328Z,56.18
2023-02-26T19:29:15.263Z,56.57
2023-02-26T19:31:43.103Z,56.32
2023-02-26T19:34:10.488Z,56.26
2023-02-26T19:36:37.681Z,56.02
2023-02-26T19:39:05.914Z,56.19
2023-02-26T19:41:33.236Z,56.96
2023-02-26T19:44:00.338Z,57.26
2023-02-26T19:46:27.481Z,57.04
2023-02-26T19:48:54.466Z,56.80
2023-02-26T19:51:21.678Z,57.01
2023-02-26T19:53:48.571Z,56.49
2023-02-26T19:56:16.249Z,56.69
2023-02-26T19:58:43.764Z,56.63
2023-02-26T20:01:10.848Z,56.50
2023-02-26T20:03:37.819Z,56.26
2023-02-26T20:06:05.198Z,56.36
2023-02-26T20:08:32.369Z,55.49
2023-02-26T20:10:59.388Z,55.98
2023-02-26T20:13:29.908Z,55.99
2023-02-26T20:15:58.746Z,56.11
2023-02-26T20:18:28.722Z,56.38
2023-02-26T20:20:55.869Z,55.89
2023-02-26T20:23:22.971Z,55.50
2023-02-26T20:25:50.686Z,55.65
2023-02-26T20:28:18.598Z,55.35
2023-02-26T20:30:46.565Z,55.71
2023-02-26T20:33:14.231Z,55.75
2023-02-26T20:35:46.092Z,55.64
2023-02-26T20:38:17.955Z,56.21
2023-02-26T20:40:46.742Z,55.65
2023-02-26T20:43:13.724Z,55.59
2023-02-26T20:45:41.907Z,56.04
2023-02-26T20:48:10.113Z,55.75
2023-02-26T20:50:37.616Z,55.61
2023-02-26T20:53:05.261Z,55.67
2023-02-26T20:55:33.153Z,56.38
2023-02-26T20:58:00.237Z,55.92
2023-02-26T21:00:27.857Z,56.04
2023-02-26T21:02:54.921Z,56.28
2023-02-26T21:05:22.068Z,56.42
2023-02-26T21:07:50.675Z,56.10
2023-02-26T21:10:18.685Z,55.90
2023-02-26T21:12:46.119Z,56.35
2023-02-26T21:15:14.162Z,55.76
2023-02-26T21:17:43.073Z,56.53
2023-02-26T21:20:18.155Z,56.24
2023-02-26T21:22:46.366Z,55.87
2023-02-26T21:25:13.723Z,56.51
2023-02-26T21:27:41.297Z,56.72
2023-02-26T21:30:10.264Z,56.22
2023-02-26T21:32:37.417Z,56.50
2023-02-26T21:35:05.569Z,56.67
2023-02-26T21:37:32.620Z,57.08
2023-02-26T21:39:59.646Z,56.96
2023-02-26T21:42:26.822Z,57.10
2023-02-26T21:44:53.741Z,57.03
2023-02-26T21:47:20.623Z,56.99
2023-02-26T21:49:48.392Z,57.45
2023-02-26T21:52:15.380Z,57.33
2023-02-26T21:54:43.884Z,57.12
2023-02-26T21:57:11.092Z,57.77
2023-02-26T21:59:38.028Z,57.53
2023-02-26T22:02:05.532Z,57.77
2023-02-26T22:04:33.842Z,57.47
2023-02-26T22:07:00.943Z,58.51
2023-02-26T22:09:27.957Z,58.71
2023-02-26T22:11:54.973Z,58.91
2023-02-26T22:14:22.276Z,58.59
2023-02-26T22:16:49.265Z,58.66
2023-02-26T22:19:16.213Z,59.15
2023-02-26T22:21:43.167Z,59.46
2023-02-26T22:24:10.397Z,59.35
2023-02-26T22:26:37.553Z,59.07
2023-02-26T22:29:04.651Z,59.10
2023-02-26T22:31:32.638Z,59.16
2023-02-26T22:34:00.443Z,58.93
2023-02-26T22:36:29.538Z,58.84
2023-02-26T22:38:57.234Z,58.71
2023-02-26T22:41:24.372Z,58.59
2023-02-26T22:43:53.783Z,58.80
2023-02-26T22:46:23.370Z,59.16
2023-02-26T22:48:50.282Z,59.11
2023-02-26T22:51:17.211Z,59.20
2023-02-26T22:53:44.133Z,59.34
2023-02-26T22:56:11.123Z,59.27
2023-02-26T22:58:38.765Z,60.07
2023-02-26T23:01:07.476Z,59.24
2023-02-26T23:03:34.938Z,58.68
2023-02-26T23:06:01.918Z,58.76
2023-02-26T23:08:28.889Z,58.94
2023-02-26T23:11:01.181Z,59.07
2023-02-26T23:13:30.913Z,59.13
2023-02-26T23:15:58.505Z,58.98
2023-02-26T23:18:25.661Z,58.82
2023-02-26T23:20:52.653Z,58.66
2023-02-26T23:23:19.552Z,58.45
2023-02-26T23:25:47.071Z,59.12
2023-02-26T23:28:14.208Z,59.11
2023-02-26T23:30:41.476Z,59.39
2023-02-26T23:33:08.506Z,59.54
2023-02-26T23:35:35.934Z,59.58
2023-02-26T23:38:04.241Z,59.19
2023-02-26T23:40:31.714Z,60.00
2023-02-26T23:42:58.895Z,59.91
2023-02-26T23:45:25.882Z,60.07
2023-02-26T23:47:52.827Z,60.23
2023-02-26T23:50:19.704Z,60.25
2023-02-26T23:52:46.854Z,59.88
2023-02-26T23:55:13.772Z,59.87
2023-02-26T23:57:40.857Z,60.26
